Winnipeg James Armstrong Richardson International Airport
CYWG : now visible

Airfield :











YOU CAN JOIN US ON...

 
LOGIN :

Register | Disclaimer

   EN    FR    IT 

 









Legend :    VFR   Marginal VFR   IFR   Intensive IFR   Very Intensive IFR
Visi :
Ceiling :
>= 8 km
>= 3000ft
5 to 8 km
1000 to 3000 ft
1500m to 5 km
500 to 1000 ft
800 to 1500m
200 to 500 ft
< 800m
< 200 ft
Symbols :   Thunderstorms  Fog  Heavy snow  Heavy precipitations  Wind > 20 kt






- Airport Elevation : 783 ft
- IATA code : YWG


CYWG - Winnipeg James Armstrong Richardson International

CURRENT METAR :
  • 271400Z 18013G20KT 15SM OVC130 M07/M10 A2979 RMK AC8 PRESFR SLP105

EXPIRED METARs :
  • 271300Z 19015KT 15SM OVC150 M07/M11 A2981 RMK AC8 SLP113
  • 271200Z 20015KT 15SM OVC170 M07/M11 A2986 RMK AC8 SLP128

TAF TAF CYWG
Valid from the 27 at 12:00 until the 28 at 12:00 UTC


271145Z 2712/2812 19015G25KT P6SM BKN200
FM271400 19015G25KT P6SM BKN120
FM271700 20015G25KT 6SM -SN SCT015 OVC040
TEMPO 2717/2724 2SM -SN FEW008 OVC015
FM280000 26010KT P6SM SCT015 BKN040
TEMPO 2800/2809 P6SM -SHRA BKN015 OVC040
FM280900 26010KT P6SM SCT008 BKN025
TEMPO 2809/2812 4SM -SHRASN BKN008 OVC025
PROB30 2809/2812 4SM -FZRA BR RMK NXT FCST BY 271800Z
CZWG FIR / North America



MET'MAP, your aeronautical weather chart ! - Copyright ORBIFLY December 2007 - Disclaimer

ORBIFLY MET'MAP TEAM :

Programming & Development : Alexandra Zaïnal
Concept & original design : Baudouin d'Aumeries
Assistance for programming : Marc-Olivier Méhu
Technical & hardware support : Manuel Goepfert

Contact : metmap@orbifly.com




SOURCES & CREDITS :

   NOAA       Earth
Advisory